This is the latest recevied weather packets stored in our database for station/object BMCB-22. If no packets are shown the sender has not sent any weather packets the latest 10 day(s).
| Time | Temp. | Humidity | Pressure | Rain* | Wind** | Luminosity | Snow |
|---|---|---|---|---|---|---|---|
| 1777442456 | 7.22° C | 53% | 1022.9 hPa | 0 mm | - | 118 W/m² | - |
| 1777441255 | 6.11° C | 55% | 1023 hPa | 0 mm | - | 28 W/m² | - |
| 1777439456 | 5.56° C | 56% | 1022.8 hPa | 0 mm | - | 20 W/m² | - |
| 1777437056 | 5.56° C | 57% | 1022.8 hPa | 0 mm | - | 6 W/m² | - |
| 1777435256 | 5.56° C | 57% | 1022.8 hPa | 0 mm | - | 0 W/m² | - |
| 1777432255 | 5.56° C | 59% | 1022.5 hPa | 0 mm | - | 0 W/m² | - |
| 1777427452 | 7.22° C | 57% | 1021.8 hPa | 0 mm | - | 0 W/m² | - |
| 1777426257 | 7.78° C | 56% | 1021.8 hPa | 0 mm | - | 0 W/m² | - |
| 1777422655 | 8.33° C | 55% | 1021.8 hPa | 0 mm | - | 0 W/m² | - |
| 1777420855 | 8.89° C | 54% | 1021.8 hPa | 0 mm | - | 0 W/m² | - |
| 1777417858 | 10° C | 53% | 1021.5 hPa | 0 mm | - | 0 W/m² | - |
| 1777416660 | 10° C | 53% | 1021.4 hPa | 0 mm | - | 0 W/m² | - |
| 1777413659 | 10.56° C | 53% | 1021 hPa | 0 mm | - | 0 W/m² | - |
| 1777410665 | 11.67° C | 51% | 1020.8 hPa | 0 mm | - | 0 W/m² | - |
| 1777396259 | 16.11° C | 41% | 1018.1 hPa | 0 mm | - | 164 W/m² | - |
| 1777390858 | 17.78° C | 41% | 1017.4 hPa | 0 mm | - | 406 W/m² | - |
| 1777389058 | 17.22° C | 42% | 1017.5 hPa | 0 mm | - | 474 W/m² | - |
| 1777388456 | 17.22° C | 39% | 1017.6 hPa | 0 mm | - | 502 W/m² | - |
| 1777372261 | 15.56° C | 42% | 1018.6 hPa | 0 mm | - | 726 W/m² | - |
| 1777371058 | 15.56° C | 43% | 1018.6 hPa | 0 mm | - | 728 W/m² | - |
| 1777367455 | 14.44° C | 50% | 1019 hPa | 0 mm | - | 628 W/m² | - |
| 1777363858 | 12.22° C | 59% | 1019.1 hPa | 0 mm | - | 560 W/m² | - |
| 1777357855 | 8.33° C | 66% | 1019.5 hPa | 0 mm | - | 170 W/m² | - |
| 1777348253 | 7.22° C | 63% | 1019.7 hPa | 0 mm | - | 0 W/m² | - |
| 1777346455 | 6.67° C | 66% | 1020 hPa | 0 mm | - | 0 W/m² | - |
* Rain latest hour (hover to see other rain measurements)
** Current wind speed in m/s (hover to see current wind gust speed)